createdAt,value
2022-09-12T00:00:33.167Z,14.00
2022-09-12T00:02:59.908Z,14.00
2022-09-12T00:05:27.440Z,13.90
2022-09-12T00:07:53.942Z,13.80
2022-09-12T00:10:20.456Z,13.80
2022-09-12T00:12:46.956Z,13.80
2022-09-12T00:15:13.667Z,13.80
2022-09-12T00:17:40.292Z,14.00
2022-09-12T00:20:09.328Z,14.20
2022-09-12T00:22:36.962Z,14.20
2022-09-12T00:25:04.770Z,14.00
2022-09-12T00:27:31.259Z,13.90
2022-09-12T00:29:57.752Z,13.90
2022-09-12T00:32:24.258Z,13.80
2022-09-12T00:34:50.727Z,13.70
2022-09-12T00:37:17.218Z,13.60
2022-09-12T00:39:43.963Z,13.30
2022-09-12T00:42:12.024Z,13.20
2022-09-12T00:44:50.359Z,13.30
2022-09-12T00:47:24.128Z,13.30
2022-09-12T00:50:08.780Z,13.30
2022-09-12T00:53:03.185Z,13.10
2022-09-12T00:55:40.906Z,13.20
2022-09-12T00:58:27.710Z,13.10
2022-09-12T01:00:54.895Z,13.00
2022-09-12T01:03:24.206Z,12.90
2022-09-12T01:06:08.758Z,13.10
2022-09-12T01:08:36.722Z,13.20
2022-09-12T01:11:05.269Z,13.10
2022-09-12T01:13:34.965Z,12.80
2022-09-12T01:16:05.807Z,12.70
2022-09-12T01:20:39.292Z,12.50
2022-09-12T01:29:30.874Z,12.50
2022-09-12T01:32:39.485Z,12.30
2022-09-12T01:39:49.077Z,12.30
2022-09-12T01:42:30.231Z,12.40
2022-09-12T01:46:47.468Z,13.00
2022-09-12T01:50:59.508Z,13.20
2022-09-12T01:53:36.032Z,13.30
2022-09-12T01:56:25.713Z,12.70
2022-09-12T01:59:08.388Z,12.50
2022-09-12T02:01:44.798Z,12.50
2022-09-12T02:04:19.356Z,12.50
2022-09-12T02:07:20.262Z,12.40
2022-09-12T02:12:48.039Z,12.20
2022-09-12T02:15:19.955Z,12.00
2022-09-12T02:17:51.457Z,12.10
2022-09-12T02:20:46.963Z,12.00
2022-09-12T02:23:27.000Z,12.10
2022-09-12T02:26:01.445Z,12.30
2022-09-12T02:28:39.883Z,12.50
2022-09-12T02:33:05.503Z,12.60
2022-09-12T02:39:33.403Z,12.60
2022-09-12T02:42:02.345Z,12.50
2022-09-12T02:44:31.300Z,12.70
2022-09-12T02:47:10.113Z,12.60
2022-09-12T02:49:36.771Z,12.50
2022-09-12T02:52:03.784Z,12.40
2022-09-12T02:54:30.707Z,12.30
2022-09-12T02:56:57.487Z,12.20
2022-09-12T02:59:25.644Z,12.00
2022-09-12T03:06:42.429Z,11.80
2022-09-12T03:10:13.158Z,11.70
2022-09-12T03:16:08.386Z,11.80
2022-09-12T03:20:52.629Z,12.00
2022-09-12T03:24:32.319Z,12.20
2022-09-12T03:28:52.461Z,12.20
2022-09-12T03:31:19.816Z,12.10
2022-09-12T03:33:46.403Z,12.20
2022-09-12T03:36:24.558Z,12.20
2022-09-12T03:38:51.359Z,12.20
2022-09-12T03:41:17.990Z,12.10
2022-09-12T03:43:44.900Z,12.20
2022-09-12T03:46:11.927Z,12.20
2022-09-12T03:48:38.575Z,12.30
2022-09-12T03:51:09.208Z,12.40
2022-09-12T03:53:36.026Z,12.40
2022-09-12T03:56:12.983Z,12.30
2022-09-12T03:58:39.794Z,12.20
2022-09-12T04:01:12.075Z,12.10
2022-09-12T04:03:47.882Z,12.00
2022-09-12T04:06:18.171Z,11.80
2022-09-12T04:08:48.387Z,11.60
2022-09-12T04:11:16.044Z,11.60
2022-09-12T04:13:45.229Z,11.50
2022-09-12T04:16:13.879Z,11.50
2022-09-12T04:18:41.126Z,11.50
2022-09-12T04:21:15.436Z,11.50
2022-09-12T04:23:44.818Z,11.50
2022-09-12T04:26:12.940Z,11.40
2022-09-12T04:28:40.819Z,11.10
2022-09-12T04:31:16.858Z,11.00
2022-09-12T04:33:46.451Z,11.00
2022-09-12T04:36:18.106Z,10.90
2022-09-12T04:38:46.960Z,11.00
2022-09-12T04:41:20.653Z,11.00
2022-09-12T04:43:52.307Z,11.00
2022-09-12T04:46:19.689Z,11.10
2022-09-12T04:48:53.285Z,11.20
2022-09-12T04:51:35.220Z,11.30
2022-09-12T04:54:06.961Z,11.30
2022-09-12T04:56:41.060Z,11.40
2022-09-12T04:59:08.429Z,11.50
2022-09-12T05:01:35.458Z,11.70
2022-09-12T05:04:03.080Z,11.70
2022-09-12T05:06:36.399Z,11.80
2022-09-12T05:09:05.688Z,11.90
2022-09-12T05:12:03.170Z,11.90
2022-09-12T05:14:31.817Z,11.90
2022-09-12T05:17:00.472Z,12.00
2022-09-12T05:19:27.979Z,11.90
2022-09-12T05:21:54.448Z,11.90
2022-09-12T05:24:20.957Z,12.00
2022-09-12T05:26:47.505Z,12.10
2022-09-12T05:29:13.977Z,12.10
2022-09-12T05:31:40.797Z,12.20
2022-09-12T05:34:08.518Z,12.30
2022-09-12T05:36:36.348Z,12.40
2022-09-12T05:39:03.884Z,12.40
2022-09-12T05:41:33.066Z,12.40
2022-09-12T05:44:02.974Z,12.60
2022-09-12T05:46:36.330Z,13.00
2022-09-12T05:49:09.361Z,13.30
2022-09-12T05:51:39.771Z,13.50
2022-09-12T05:54:09.214Z,13.80
2022-09-12T05:56:42.091Z,13.60
2022-09-12T05:59:16.755Z,13.70
2022-09-12T06:01:43.792Z,13.80
2022-09-12T06:04:11.342Z,13.90
2022-09-12T06:06:44.285Z,14.00
2022-09-12T06:09:12.634Z,14.00
2022-09-12T06:11:42.714Z,14.20
2022-09-12T06:14:12.673Z,14.20
2022-09-12T06:16:39.787Z,14.20
2022-09-12T06:19:19.391Z,14.50
2022-09-12T06:21:48.670Z,14.70
2022-09-12T06:24:20.149Z,14.80
2022-09-12T06:26:49.080Z,15.10
2022-09-12T06:29:16.013Z,15.20
2022-09-12T06:31:44.715Z,15.30
2022-09-12T06:34:14.602Z,15.40
2022-09-12T06:36:44.773Z,15.60
2022-09-12T06:39:22.180Z,15.90
2022-09-12T06:41:52.234Z,16.30
2022-09-12T06:44:22.127Z,16.40
2022-09-12T06:46:49.256Z,16.60
2022-09-12T06:49:16.957Z,16.60
2022-09-12T06:51:43.738Z,16.90
2022-09-12T06:54:14.631Z,17.30
2022-09-12T06:56:41.726Z,17.40
2022-09-12T06:59:08.280Z,17.60
2022-09-12T07:01:34.812Z,17.50
2022-09-12T07:04:03.851Z,17.60
2022-09-12T07:06:37.922Z,17.20
2022-09-12T07:09:09.080Z,16.90
2022-09-12T07:11:38.702Z,16.80
2022-09-12T07:14:07.721Z,16.90
2022-09-12T07:16:37.536Z,17.20
2022-09-12T07:19:06.755Z,17.50
2022-09-12T07:21:38.811Z,18.00
2022-09-12T07:24:07.999Z,18.30
2022-09-12T07:26:34.903Z,18.70
2022-09-12T07:29:19.097Z,19.00
2022-09-12T07:32:01.952Z,19.30
2022-09-12T07:34:28.450Z,19.70
2022-09-12T07:36:54.924Z,20.10
2022-09-12T07:39:21.398Z,20.20
2022-09-12T07:41:47.909Z,20.40
2022-09-12T07:44:14.413Z,20.70
2022-09-12T07:46:40.909Z,20.90
2022-09-12T07:49:08.390Z,21.10
2022-09-12T07:51:35.182Z,21.10
2022-09-12T07:54:02.007Z,21.40
2022-09-12T07:56:31.894Z,21.80
2022-09-12T07:58:59.310Z,22.10
2022-09-12T08:01:26.981Z,22.50
2022-09-12T08:03:58.547Z,22.70
2022-09-12T08:06:27.841Z,22.80
2022-09-12T08:08:56.663Z,23.10
2022-09-12T08:11:25.493Z,23.20
2022-09-12T08:13:55.763Z,23.30
2022-09-12T08:16:26.204Z,23.30
2022-09-12T08:18:52.907Z,23.40
2022-09-12T08:21:26.421Z,23.40
2022-09-12T08:24:00.065Z,23.60
2022-09-12T08:26:27.270Z,23.70
2022-09-12T08:28:54.860Z,23.80
2022-09-12T08:31:23.678Z,23.80
2022-09-12T08:33:51.142Z,23.40
2022-09-12T08:36:21.904Z,23.30
2022-09-12T08:38:58.719Z,23.40
2022-09-12T08:41:48.430Z,23.50
2022-09-12T08:45:16.697Z,23.90
2022-09-12T08:47:46.875Z,24.10
2022-09-12T08:50:21.521Z,23.80
2022-09-12T08:53:19.609Z,23.50
2022-09-12T08:55:58.397Z,23.30
2022-09-12T08:58:28.405Z,23.30
2022-09-12T09:01:38.459Z,23.10
2022-09-12T09:04:52.001Z,22.80
2022-09-12T09:10:07.135Z,22.80
2022-09-12T09:15:43.647Z,22.60
2022-09-12T09:18:31.698Z,22.60
2022-09-12T09:21:27.277Z,22.60
2022-09-12T09:24:04.162Z,23.10
2022-09-12T09:27:00.196Z,23.10
2022-09-12T09:29:53.652Z,23.20
2022-09-12T09:32:34.387Z,23.40
2022-09-12T09:35:15.111Z,23.10
2022-09-12T09:37:58.577Z,22.90
2022-09-12T09:40:59.490Z,23.00
2022-09-12T09:43:29.095Z,23.20
2022-09-12T09:45:59.641Z,23.10
2022-09-12T09:48:31.930Z,23.10
2022-09-12T09:51:08.109Z,23.10
2022-09-12T09:53:51.055Z,23.10
2022-09-12T09:58:09.262Z,22.90
2022-09-12T10:00:37.923Z,23.00
2022-09-12T10:03:30.363Z,23.20
2022-09-12T10:06:06.342Z,23.40
2022-09-12T10:08:37.725Z,23.70
2022-09-12T10:11:22.211Z,24.10
2022-09-12T10:13:56.367Z,24.10
2022-09-12T10:16:32.573Z,23.90
2022-09-12T10:19:02.453Z,23.60
2022-09-12T10:21:47.053Z,23.20
2022-09-12T10:25:00.263Z,22.70
2022-09-12T10:27:35.238Z,22.40
2022-09-12T10:30:20.837Z,22.30
2022-09-12T10:32:50.224Z,22.60
2022-09-12T10:35:23.461Z,22.70
2022-09-12T10:38:04.612Z,22.80
2022-09-12T10:40:40.162Z,22.90
2022-09-12T10:43:40.043Z,23.20
2022-09-12T10:47:21.633Z,23.60
2022-09-12T10:49:50.404Z,23.90
2022-09-12T10:52:24.931Z,23.90
2022-09-12T10:54:52.085Z,24.20
2022-09-12T11:01:33.299Z,24.60
2022-09-12T11:05:17.406Z,24.90
2022-09-12T11:09:31.698Z,25.30
2022-09-12T11:14:54.895Z,24.90
2022-09-12T11:21:44.257Z,24.60
2022-09-12T11:25:01.533Z,24.40
2022-09-12T11:29:31.449Z,25.00
2022-09-12T11:35:24.035Z,25.20
2022-09-12T11:40:47.943Z,25.20
2022-09-12T11:43:51.157Z,24.70
2022-09-12T11:46:39.971Z,24.50
2022-09-12T11:49:42.471Z,24.10
2022-09-12T11:52:24.387Z,24.30
2022-09-12T11:55:27.392Z,24.40
2022-09-12T11:57:57.837Z,24.20
2022-09-12T12:00:44.321Z,24.30
2022-09-12T12:05:58.455Z,24.60
2022-09-12T12:08:29.214Z,25.30
2022-09-12T12:11:07.401Z,25.40
2022-09-12T12:14:32.534Z,25.30
2022-09-12T12:16:59.297Z,25.30
2022-09-12T12:19:37.316Z,25.10
2022-09-12T12:22:22.319Z,25.00
2022-09-12T12:25:50.954Z,24.90
2022-09-12T12:28:58.467Z,24.80
2022-09-12T12:31:25.004Z,24.70
2022-09-12T12:33:59.943Z,24.40
2022-09-12T12:36:39.483Z,24.40
2022-09-12T12:40:25.684Z,24.20
2022-09-12T12:43:05.317Z,24.30
2022-09-12T12:46:00.768Z,24.50
2022-09-12T12:48:33.039Z,24.60
2022-09-12T12:51:44.897Z,24.90
2022-09-12T12:54:55.637Z,24.80
2022-09-12T12:57:46.848Z,24.60
2022-09-12T13:02:05.308Z,24.30
2022-09-12T13:04:33.253Z,24.30
2022-09-12T13:07:08.644Z,24.30
2022-09-12T13:09:46.759Z,24.40
2022-09-12T13:12:33.560Z,24.50
2022-09-12T13:15:03.488Z,24.70
2022-09-12T13:17:40.808Z,24.80
2022-09-12T13:20:31.670Z,24.90
2022-09-12T13:22:58.762Z,24.90
2022-09-12T13:25:36.556Z,24.70
2022-09-12T13:28:21.516Z,24.60
2022-09-12T13:31:22.231Z,24.60
2022-09-12T13:33:53.989Z,24.50
2022-09-12T13:37:39.388Z,24.50
2022-09-12T13:42:23.951Z,24.50
2022-09-12T13:45:02.396Z,24.30
2022-09-12T13:47:36.795Z,24.30
2022-09-12T13:50:06.636Z,24.20
2022-09-12T13:52:37.521Z,24.00
2022-09-12T13:55:37.053Z,23.90
2022-09-12T13:58:25.958Z,24.10
2022-09-12T14:01:14.663Z,24.30
2022-09-12T14:04:11.135Z,24.60
2022-09-12T14:06:50.545Z,24.80
2022-09-12T14:09:39.087Z,24.80
2022-09-12T14:12:26.328Z,24.60
2022-09-12T14:14:53.602Z,24.30
2022-09-12T14:17:38.650Z,24.60
2022-09-12T14:20:13.632Z,24.50
2022-09-12T14:22:41.248Z,24.80
2022-09-12T14:25:17.179Z,24.50
2022-09-12T14:27:50.337Z,24.50
2022-09-12T14:30:33.654Z,24.60
2022-09-12T14:33:19.364Z,24.60
2022-09-12T14:36:06.430Z,24.40
2022-09-12T14:38:46.579Z,24.20
2022-09-12T14:41:40.142Z,24.10
2022-09-12T14:44:18.465Z,24.00
2022-09-12T14:46:45.244Z,24.10
2022-09-12T14:51:05.490Z,24.00
2022-09-12T14:53:37.215Z,23.70
2022-09-12T14:56:12.338Z,23.60
2022-09-12T14:58:41.590Z,23.50
2022-09-12T15:01:24.066Z,23.40
2022-09-12T15:03:54.698Z,23.50
2022-09-12T15:06:32.846Z,23.50
2022-09-12T15:09:05.199Z,23.50
2022-09-12T15:11:33.017Z,23.40
2022-09-12T15:14:12.722Z,23.50
2022-09-12T15:16:39.181Z,23.60
2022-09-12T15:19:05.656Z,23.60
2022-09-12T15:21:32.408Z,23.40
2022-09-12T15:23:58.873Z,23.40
2022-09-12T15:26:29.794Z,23.40
2022-09-12T15:28:56.296Z,23.40
2022-09-12T15:31:31.556Z,23.20
2022-09-12T15:34:01.259Z,23.10
2022-09-12T15:36:28.525Z,23.00
2022-09-12T15:38:55.778Z,23.00
2022-09-12T15:41:34.858Z,23.00
2022-09-12T15:44:07.239Z,23.00
2022-09-12T15:46:34.233Z,22.90
2022-09-12T15:49:00.748Z,23.10
2022-09-12T15:51:27.267Z,22.90
2022-09-12T15:53:53.777Z,22.90
2022-09-12T15:56:21.829Z,22.80
2022-09-12T15:58:58.803Z,22.80
2022-09-12T16:01:28.187Z,22.80
2022-09-12T16:03:54.820Z,22.60
2022-09-12T16:06:21.785Z,22.60
2022-09-12T16:08:48.547Z,22.60
2022-09-12T16:11:23.370Z,22.50
2022-09-12T16:13:52.350Z,22.60
2022-09-12T16:16:18.903Z,22.40
2022-09-12T16:18:45.467Z,22.10
2022-09-12T16:21:15.291Z,22.00
2022-09-12T16:23:43.951Z,21.80
2022-09-12T16:26:10.627Z,21.70
2022-09-12T16:28:37.348Z,21.50
2022-09-12T16:31:06.916Z,21.40
2022-09-12T16:33:33.823Z,21.20
2022-09-12T16:36:19.627Z,21.10
2022-09-12T16:38:52.285Z,20.80
2022-09-12T16:41:22.292Z,20.40
2022-09-12T16:43:49.009Z,20.30
2022-09-12T16:46:29.717Z,20.10
2022-09-12T16:48:58.053Z,19.90
2022-09-12T16:51:31.165Z,19.70
2022-09-12T16:53:58.101Z,19.60
2022-09-12T16:56:24.958Z,19.60
2022-09-12T16:58:51.980Z,19.60
2022-09-12T17:01:22.201Z,19.60
2022-09-12T17:03:52.921Z,19.40
2022-09-12T17:06:19.961Z,19.40
2022-09-12T17:08:53.502Z,19.70
2022-09-12T17:11:26.627Z,19.70
2022-09-12T17:14:11.759Z,19.70
2022-09-12T17:16:42.346Z,19.40
2022-09-12T17:19:17.595Z,19.00
2022-09-12T17:21:47.912Z,18.70
2022-09-12T17:24:15.687Z,18.50
2022-09-12T17:26:42.292Z,18.40
2022-09-12T17:29:11.565Z,18.30
2022-09-12T17:31:38.086Z,18.40
2022-09-12T17:34:04.592Z,18.50
2022-09-12T17:36:32.184Z,18.50
2022-09-12T17:39:01.039Z,18.30
2022-09-12T17:41:31.123Z,18.40
2022-09-12T17:44:00.585Z,18.30
2022-09-12T17:46:35.367Z,18.10
2022-09-12T17:49:05.413Z,18.00
2022-09-12T17:51:32.023Z,18.00
2022-09-12T17:54:02.079Z,17.70
2022-09-12T17:56:32.278Z,17.50
2022-09-12T17:59:01.057Z,17.60
2022-09-12T18:01:47.487Z,17.70
2022-09-12T18:04:14.996Z,17.60
2022-09-12T18:06:47.097Z,17.60
2022-09-12T18:09:18.617Z,17.70
2022-09-12T18:11:46.349Z,17.80
2022-09-12T18:14:14.378Z,17.60
2022-09-12T18:16:41.676Z,17.40
2022-09-12T18:19:08.503Z,17.20
2022-09-12T18:21:35.226Z,17.00
2022-09-12T18:24:03.372Z,16.80
2022-09-12T18:26:30.914Z,16.80
2022-09-12T18:28:58.118Z,16.70
2022-09-12T18:31:29.017Z,16.80
2022-09-12T18:33:56.908Z,16.90
2022-09-12T18:36:23.763Z,16.80
2022-09-12T18:38:50.263Z,16.90
2022-09-12T18:41:21.263Z,17.00
2022-09-12T18:43:52.503Z,17.00
2022-09-12T18:46:19.246Z,17.00
2022-09-12T18:48:46.546Z,16.90
2022-09-12T18:51:24.626Z,16.80
2022-09-12T18:53:57.900Z,16.70
2022-09-12T18:56:31.443Z,16.60
2022-09-12T18:58:58.964Z,16.50
2022-09-12T19:01:29.259Z,16.20
2022-09-12T19:03:56.927Z,15.90
2022-09-12T19:06:27.591Z,15.80
2022-09-12T19:08:56.134Z,15.80
2022-09-12T19:11:25.153Z,15.70
2022-09-12T19:13:53.485Z,15.60
2022-09-12T19:16:26.575Z,15.40
2022-09-12T19:18:55.639Z,15.40
2022-09-12T19:21:26.628Z,15.40
2022-09-12T19:23:58.297Z,15.30
2022-09-12T19:26:25.504Z,15.10
2022-09-12T19:28:53.441Z,15.10
2022-09-12T19:31:21.227Z,15.20
2022-09-12T19:33:48.961Z,15.30
2022-09-12T19:36:41.141Z,15.30
2022-09-12T19:39:10.706Z,15.20
2022-09-12T19:41:37.211Z,15.40
2022-09-12T19:44:04.847Z,15.50
2022-09-12T19:46:31.489Z,15.50
2022-09-12T19:48:58.143Z,15.60
2022-09-12T19:51:24.713Z,15.60
2022-09-12T19:53:52.186Z,15.60
2022-09-12T19:56:18.998Z,15.60
2022-09-12T19:58:52.072Z,15.50
2022-09-12T20:01:25.087Z,15.40
2022-09-12T20:03:53.086Z,15.50
2022-09-12T20:06:20.254Z,15.60
2022-09-12T20:08:46.832Z,15.50
2022-09-12T20:11:16.842Z,15.30
2022-09-12T20:13:45.116Z,15.20
2022-09-12T20:16:21.078Z,15.10
2022-09-12T20:18:53.893Z,15.00
2022-09-12T20:21:24.405Z,15.00
2022-09-12T20:23:51.033Z,15.00
2022-09-12T20:26:19.381Z,15.00
2022-09-12T20:28:45.951Z,15.00
2022-09-12T20:31:16.062Z,15.00
2022-09-12T20:33:43.747Z,15.10
2022-09-12T20:36:14.560Z,15.10
2022-09-12T20:38:50.656Z,14.90
2022-09-12T20:41:19.638Z,14.80
2022-09-12T20:43:50.457Z,14.60
2022-09-12T20:46:21.437Z,14.40
2022-09-12T20:48:49.582Z,14.30
2022-09-12T20:51:16.172Z,14.40
2022-09-12T20:53:42.712Z,14.60
2022-09-12T20:56:09.236Z,14.60
2022-09-12T20:58:38.320Z,14.50
2022-09-12T21:01:08.262Z,14.20
2022-09-12T21:03:38.812Z,14.10
2022-09-12T21:06:06.749Z,13.90
2022-09-12T21:08:34.399Z,14.00
2022-09-12T21:11:01.439Z,13.90
2022-09-12T21:13:29.244Z,14.10
2022-09-12T21:16:12.323Z,14.10
2022-09-12T21:18:40.314Z,14.20
2022-09-12T21:21:08.730Z,14.30
2022-09-12T21:23:35.279Z,14.20
2022-09-12T21:26:03.181Z,14.20
2022-09-12T21:28:30.258Z,14.10
2022-09-12T21:30:57.096Z,14.10
2022-09-12T21:33:23.696Z,14.00
2022-09-12T21:35:50.513Z,13.90
2022-09-12T21:38:18.939Z,13.90
2022-09-12T21:40:46.183Z,13.90
2022-09-12T21:43:13.407Z,14.00
2022-09-12T21:45:41.448Z,14.10
2022-09-12T21:48:08.004Z,14.10
2022-09-12T21:50:34.899Z,14.20
2022-09-12T21:53:01.430Z,14.30
2022-09-12T21:55:27.892Z,14.30
2022-09-12T21:57:55.645Z,14.30
2022-09-12T22:00:22.853Z,14.20
2022-09-12T22:02:49.508Z,14.30
2022-09-12T22:05:16.514Z,14.40
2022-09-12T22:07:43.197Z,14.40
2022-09-12T22:10:10.069Z,14.10
2022-09-12T22:12:36.595Z,14.10
2022-09-12T22:15:22.977Z,14.00
2022-09-12T22:18:06.632Z,13.90
2022-09-12T22:20:33.135Z,13.80
2022-09-12T22:23:21.171Z,13.70
2022-09-12T22:25:50.388Z,13.90
2022-09-12T22:28:16.849Z,13.90
2022-09-12T22:30:47.820Z,13.90
2022-09-12T22:33:14.349Z,13.90
2022-09-12T22:35:41.637Z,13.90
2022-09-12T22:38:08.400Z,13.90
2022-09-12T22:40:35.118Z,13.90
2022-09-12T22:43:01.592Z,14.00
2022-09-12T22:45:28.070Z,14.00
2022-09-12T22:47:57.159Z,14.00
2022-09-12T22:50:25.682Z,14.00
2022-09-12T22:52:53.087Z,14.00
2022-09-12T22:55:19.538Z,14.00
2022-09-12T22:57:46.013Z,14.20
2022-09-12T23:00:13.400Z,14.20
2022-09-12T23:02:39.873Z,14.30
2022-09-12T23:05:06.765Z,14.30
2022-09-12T23:07:33.282Z,14.20
2022-09-12T23:10:00.365Z,14.10
2022-09-12T23:12:26.857Z,14.10
2022-09-12T23:14:53.336Z,14.00
2022-09-12T23:17:19.796Z,14.00
2022-09-12T23:19:46.276Z,13.80
2022-09-12T23:22:12.749Z,13.70
2022-09-12T23:24:39.255Z,13.70
2022-09-12T23:27:05.755Z,13.60
2022-09-12T23:29:34.520Z,13.40
2022-09-12T23:32:02.976Z,13.30
2022-09-12T23:34:30.183Z,13.40
2022-09-12T23:36:56.713Z,13.30
2022-09-12T23:39:23.259Z,13.30
2022-09-12T23:41:50.166Z,13.30
2022-09-12T23:44:16.672Z,13.30
2022-09-12T23:46:43.224Z,13.30
2022-09-12T23:49:09.690Z,13.20
2022-09-12T23:51:36.151Z,13.20
2022-09-12T23:54:02.805Z,13.10
2022-09-12T23:56:29.242Z,13.00
2022-09-12T23:58:55.741Z,13.00
